Iowa City, IA (52245)

12:29 AM CST on January 21, 2017 (GMT -0600)
NE - Iowa City | | Change Station
Active Advisory: Dense Fog Advisory

Elev 797 ft 41.67 °N, 91.48 °W | Updated 11 seconds ago

Fog
Fog
42.0 °F
Feels Like 42 °F
N
0.0
Wind Variable Wind from ESE
Gusts 1.0 mph

Today
High -- | Low -- °F
--% Chance of Precip.
Yesterday
High -- | Low -- °F
Precip. -- in
Pressure 29.53 in
Visibility 0.2 miles
Clouds
Windchill 42 °F
Dew Point 20 °F
Humidity 40%
Rainfall 0.00 in
Snow Depth Not available.
7:27 AM 5:08 PM
Last Quarter, 37% visible
METAR KIOW 210552Z AUTO 09004KT 1/4SM FG VV002 06/06 A2951 RMK AO2 SLP998 60000 T00560056 10061 20056 400610022 58020
Pressure 29.53 in
Visibility 0.2 miles
Clouds
Windchill 42 °F
Dew Point 20 °F
Humidity 40%
Rainfall 0.00 in
Snow Depth Not available.
7:27 AM 5:08 PM
Last Quarter, 37% visible
METAR KIOW 210552Z AUTO 09004KT 1/4SM FG VV002 06/06 A2951 RMK AO2 SLP998 60000 T00560056 10061 20056 400610022 58020

Get Your Daily Forecast Email!

Thanks for signing up!

Be on the lookout for a verification email in your inbox.

You'll start receiving the daily forecast at 8 AM.

×

10-Day Weather Forecast

Almanac

Astronomy

Jan. 21, 2017 Rise Set
Actual Time
Civil Twilight
Nautical Twilight
Astronomical Twilight
Moon
Length of Visible Light
Length of Day
Tomorrow will be .
, % of the Moon is Illuminated

Today's Extremes

State Highs State Lows

Community

WunderPhotos

Upload Photos

1,962,540 photos uploaded!

WunderBlog® & News

Nearby

Air Quality

  Air Quality AQ Index Pollutant
Not available.

Snow Depth

Station Depth Elevation

Earthquake Activity

City Distance Mag. Time & Date
Minimum magnitude displayed is 2.5.

Coastal Water Temperatures

Place Temperature

Stations

Nearby Weather Stations

Station Location Temp. Windchill Dew Point Humidity Wind Precip. Elev Updated Type
                   

Watches & Warnings

Dense Fog Advisory
Issued: 8:51 PM CST Jan. 20, 2017 – National Weather Service

... Dense fog advisory remains in effect until 10 am CST
Saturday...

* timing... through mid-morning Saturday. Overnight into Saturday
morning the dense fog is expected to lift and visibilities
improve from south to north.

* Visibility... less than 1/4 mile at times.

* Impacts... driving will be hazardous due to severely reduced
visibility at times.

Precautionary/preparedness actions...

A dense fog advisory means visibilities will frequently be
reduced to less than one quarter mile. If driving... slow down...
use your headlights... and leave plenty of distance ahead of you.